sensor_id;sensor_type;location;lat;lon;timestamp;P1;durP1;ratioP1;P2;durP2;ratioP2
8050;SDS011;4068;42.158;24.732;2023-06-22T00:01:27;18.30;;;12.77;;
8050;SDS011;4068;42.158;24.732;2023-06-22T00:03:53;15.68;;;12.75;;
8050;SDS011;4068;42.158;24.732;2023-06-22T00:06:18;16.70;;;11.57;;
8050;SDS011;4068;42.158;24.732;2023-06-22T00:08:44;15.60;;;11.48;;
8050;SDS011;4068;42.158;24.732;2023-06-22T00:11:10;16.42;;;11.80;;
8050;SDS011;4068;42.158;24.732;2023-06-22T00:13:35;18.42;;;11.93;;
8050;SDS011;4068;42.158;24.732;2023-06-22T00:16:01;14.32;;;11.80;;
8050;SDS011;4068;42.158;24.732;2023-06-22T00:18:26;15.40;;;12.07;;
8050;SDS011;4068;42.158;24.732;2023-06-22T00:20:53;17.10;;;11.40;;
8050;SDS011;4068;42.158;24.732;2023-06-22T00:23:22;25.23;;;12.23;;
8050;SDS011;4068;42.158;24.732;2023-06-22T00:25:48;19.42;;;12.32;;
8050;SDS011;4068;42.158;24.732;2023-06-22T00:28:14;18.48;;;11.93;;
8050;SDS011;4068;42.158;24.732;2023-06-22T00:30:39;18.20;;;12.13;;
8050;SDS011;4068;42.158;24.732;2023-06-22T00:33:05;14.80;;;10.80;;
8050;SDS011;4068;42.158;24.732;2023-06-22T00:35:32;17.80;;;11.60;;
8050;SDS011;4068;42.158;24.732;2023-06-22T00:37:59;13.65;;;10.70;;
8050;SDS011;4068;42.158;24.732;2023-06-22T00:40:26;14.20;;;10.00;;
8050;SDS011;4068;42.158;24.732;2023-06-22T00:42:52;16.48;;;10.88;;
8050;SDS011;4068;42.158;24.732;2023-06-22T00:45:18;13.52;;;10.90;;
8050;SDS011;4068;42.158;24.732;2023-06-22T00:47:43;12.93;;;10.52;;
8050;SDS011;4068;42.158;24.732;2023-06-22T00:50:09;13.77;;;11.20;;
8050;SDS011;4068;42.158;24.732;2023-06-22T00:52:43;13.07;;;10.13;;
8050;SDS011;4068;42.158;24.732;2023-06-22T00:55:11;13.82;;;10.75;;
8050;SDS011;4068;42.158;24.732;2023-06-22T00:57:36;13.30;;;10.13;;
8050;SDS011;4068;42.158;24.732;2023-06-22T01:00:02;16.13;;;11.60;;
8050;SDS011;4068;42.158;24.732;2023-06-22T01:02:31;15.95;;;11.18;;
8050;SDS011;4068;42.158;24.732;2023-06-22T01:04:57;17.55;;;11.52;;
8050;SDS011;4068;42.158;24.732;2023-06-22T01:07:28;16.83;;;12.20;;
8050;SDS011;4068;42.158;24.732;2023-06-22T01:10:21;16.58;;;13.00;;
8050;SDS011;4068;42.158;24.732;2023-06-22T01:12:50;17.42;;;12.70;;
8050;SDS011;4068;42.158;24.732;2023-06-22T01:15:28;15.95;;;12.68;;
8050;SDS011;4068;42.158;24.732;2023-06-22T01:17:54;14.80;;;12.38;;
8050;SDS011;4068;42.158;24.732;2023-06-22T01:20:22;16.38;;;12.98;;
8050;SDS011;4068;42.158;24.732;2023-06-22T01:22:59;13.32;;;11.52;;
8050;SDS011;4068;42.158;24.732;2023-06-22T01:25:55;15.63;;;11.57;;
8050;SDS011;4068;42.158;24.732;2023-06-22T01:31:12;16.48;;;12.95;;
8050;SDS011;4068;42.158;24.732;2023-06-22T01:33:41;15.20;;;11.85;;
8050;SDS011;4068;42.158;24.732;2023-06-22T01:36:08;13.13;;;10.63;;
8050;SDS011;4068;42.158;24.732;2023-06-22T01:38:35;17.27;;;11.10;;
8050;SDS011;4068;42.158;24.732;2023-06-22T01:41:02;14.25;;;10.98;;
8050;SDS011;4068;42.158;24.732;2023-06-22T01:43:28;13.93;;;11.27;;
8050;SDS011;4068;42.158;24.732;2023-06-22T01:45:55;14.48;;;11.15;;
8050;SDS011;4068;42.158;24.732;2023-06-22T01:48:22;14.50;;;11.35;;
8050;SDS011;4068;42.158;24.732;2023-06-22T01:50:48;14.57;;;11.30;;
8050;SDS011;4068;42.158;24.732;2023-06-22T01:53:14;13.38;;;11.32;;
8050;SDS011;4068;42.158;24.732;2023-06-22T01:55:39;14.93;;;11.68;;
8050;SDS011;4068;42.158;24.732;2023-06-22T01:58:05;14.90;;;11.85;;
8050;SDS011;4068;42.158;24.732;2023-06-22T02:00:36;14.52;;;11.02;;
8050;SDS011;4068;42.158;24.732;2023-06-22T02:03:05;18.35;;;11.63;;
8050;SDS011;4068;42.158;24.732;2023-06-22T02:05:36;16.63;;;11.57;;
8050;SDS011;4068;42.158;24.732;2023-06-22T02:08:08;15.10;;;11.30;;
8050;SDS011;4068;42.158;24.732;2023-06-22T02:10:37;18.30;;;11.38;;
8050;SDS011;4068;42.158;24.732;2023-06-22T02:13:06;18.25;;;12.15;;
8050;SDS011;4068;42.158;24.732;2023-06-22T02:15:34;15.30;;;12.32;;
8050;SDS011;4068;42.158;24.732;2023-06-22T02:18:00;19.23;;;12.98;;
8050;SDS011;4068;42.158;24.732;2023-06-22T02:20:26;18.92;;;13.10;;
8050;SDS011;4068;42.158;24.732;2023-06-22T02:22:51;15.55;;;12.18;;
8050;SDS011;4068;42.158;24.732;2023-06-22T02:25:17;25.13;;;13.77;;
8050;SDS011;4068;42.158;24.732;2023-06-22T02:27:43;15.93;;;12.52;;
8050;SDS011;4068;42.158;24.732;2023-06-22T02:30:09;17.98;;;13.77;;
8050;SDS011;4068;42.158;24.732;2023-06-22T02:32:35;20.70;;;13.50;;
8050;SDS011;4068;42.158;24.732;2023-06-22T02:35:01;18.38;;;12.23;;
8050;SDS011;4068;42.158;24.732;2023-06-22T02:37:29;17.10;;;13.23;;
8050;SDS011;4068;42.158;24.732;2023-06-22T02:39:56;19.27;;;13.23;;
8050;SDS011;4068;42.158;24.732;2023-06-22T02:42:21;17.00;;;12.95;;
8050;SDS011;4068;42.158;24.732;2023-06-22T02:44:47;18.83;;;13.75;;
8050;SDS011;4068;42.158;24.732;2023-06-22T02:47:13;17.30;;;13.10;;
8050;SDS011;4068;42.158;24.732;2023-06-22T02:49:38;19.60;;;13.98;;
8050;SDS011;4068;42.158;24.732;2023-06-22T02:52:04;15.55;;;12.93;;
8050;SDS011;4068;42.158;24.732;2023-06-22T02:54:29;17.48;;;13.02;;
8050;SDS011;4068;42.158;24.732;2023-06-22T02:56:55;16.80;;;12.88;;
8050;SDS011;4068;42.158;24.732;2023-06-22T02:59:20;18.42;;;12.48;;
8050;SDS011;4068;42.158;24.732;2023-06-22T03:01:49;19.17;;;12.30;;
8050;SDS011;4068;42.158;24.732;2023-06-22T03:04:15;15.80;;;11.77;;
8050;SDS011;4068;42.158;24.732;2023-06-22T03:06:40;15.15;;;11.45;;
8050;SDS011;4068;42.158;24.732;2023-06-22T03:09:06;13.90;;;10.98;;
8050;SDS011;4068;42.158;24.732;2023-06-22T03:11:33;13.32;;;11.00;;
8050;SDS011;4068;42.158;24.732;2023-06-22T03:13:59;14.43;;;11.00;;
8050;SDS011;4068;42.158;24.732;2023-06-22T03:16:25;14.07;;;10.13;;
8050;SDS011;4068;42.158;24.732;2023-06-22T03:18:51;12.90;;;9.38;;
8050;SDS011;4068;42.158;24.732;2023-06-22T03:21:18;13.98;;;10.30;;
8050;SDS011;4068;42.158;24.732;2023-06-22T03:23:44;10.68;;;8.85;;
8050;SDS011;4068;42.158;24.732;2023-06-22T03:26:09;13.75;;;8.50;;
8050;SDS011;4068;42.158;24.732;2023-06-22T03:28:35;11.15;;;8.90;;
8050;SDS011;4068;42.158;24.732;2023-06-22T03:31:02;13.88;;;8.98;;
8050;SDS011;4068;42.158;24.732;2023-06-22T03:33:28;13.60;;;9.18;;
8050;SDS011;4068;42.158;24.732;2023-06-22T03:35:54;12.35;;;8.85;;
8050;SDS011;4068;42.158;24.732;2023-06-22T03:38:20;13.95;;;9.13;;
8050;SDS011;4068;42.158;24.732;2023-06-22T03:40:45;13.95;;;9.27;;
8050;SDS011;4068;42.158;24.732;2023-06-22T03:43:11;17.08;;;9.63;;
8050;SDS011;4068;42.158;24.732;2023-06-22T03:45:36;11.75;;;9.00;;
8050;SDS011;4068;42.158;24.732;2023-06-22T03:48:02;10.88;;;8.95;;
8050;SDS011;4068;42.158;24.732;2023-06-22T03:50:28;14.18;;;9.07;;
8050;SDS011;4068;42.158;24.732;2023-06-22T03:52:53;14.02;;;8.80;;
8050;SDS011;4068;42.158;24.732;2023-06-22T03:55:21;12.10;;;9.02;;
8050;SDS011;4068;42.158;24.732;2023-06-22T03:57:47;14.85;;;9.82;;
8050;SDS011;4068;42.158;24.732;2023-06-22T04:00:13;12.25;;;9.63;;
8050;SDS011;4068;42.158;24.732;2023-06-22T04:02:40;14.75;;;9.68;;
8050;SDS011;4068;42.158;24.732;2023-06-22T04:05:08;18.38;;;10.00;;
8050;SDS011;4068;42.158;24.732;2023-06-22T04:07:34;15.90;;;9.98;;
8050;SDS011;4068;42.158;24.732;2023-06-22T04:09:59;10.90;;;9.02;;
8050;SDS011;4068;42.158;24.732;2023-06-22T04:12:25;11.85;;;9.32;;
8050;SDS011;4068;42.158;24.732;2023-06-22T04:14:50;13.05;;;8.82;;
8050;SDS011;4068;42.158;24.732;2023-06-22T04:17:15;11.70;;;9.30;;
8050;SDS011;4068;42.158;24.732;2023-06-22T04:19:42;17.75;;;10.52;;
8050;SDS011;4068;42.158;24.732;2023-06-22T04:22:08;17.77;;;10.77;;
8050;SDS011;4068;42.158;24.732;2023-06-22T04:24:33;15.20;;;10.43;;
8050;SDS011;4068;42.158;24.732;2023-06-22T04:26:59;13.93;;;9.85;;
8050;SDS011;4068;42.158;24.732;2023-06-22T04:29:27;11.98;;;9.68;;
8050;SDS011;4068;42.158;24.732;2023-06-22T04:31:55;15.10;;;10.00;;
8050;SDS011;4068;42.158;24.732;2023-06-22T04:34:23;12.50;;;9.60;;
8050;SDS011;4068;42.158;24.732;2023-06-22T04:36:51;14.23;;;9.93;;
8050;SDS011;4068;42.158;24.732;2023-06-22T04:39:17;14.02;;;9.98;;
8050;SDS011;4068;42.158;24.732;2023-06-22T04:41:44;13.63;;;9.65;;
8050;SDS011;4068;42.158;24.732;2023-06-22T04:44:13;12.80;;;10.00;;
8050;SDS011;4068;42.158;24.732;2023-06-22T04:46:53;15.18;;;10.57;;
8050;SDS011;4068;42.158;24.732;2023-06-22T04:49:24;12.80;;;9.70;;
8050;SDS011;4068;42.158;24.732;2023-06-22T04:51:58;13.45;;;9.50;;
8050;SDS011;4068;42.158;24.732;2023-06-22T04:54:24;13.15;;;9.93;;
8050;SDS011;4068;42.158;24.732;2023-06-22T04:56:49;12.82;;;10.20;;
8050;SDS011;4068;42.158;24.732;2023-06-22T04:59:21;14.63;;;10.25;;
8050;SDS011;4068;42.158;24.732;2023-06-22T05:01:56;19.15;;;10.55;;
8050;SDS011;4068;42.158;24.732;2023-06-22T05:04:22;17.83;;;10.02;;
8050;SDS011;4068;42.158;24.732;2023-06-22T05:06:52;12.30;;;9.73;;
8050;SDS011;4068;42.158;24.732;2023-06-22T05:09:18;11.68;;;10.07;;
8050;SDS011;4068;42.158;24.732;2023-06-22T05:11:44;13.98;;;9.93;;
8050;SDS011;4068;42.158;24.732;2023-06-22T05:14:10;16.35;;;10.05;;
8050;SDS011;4068;42.158;24.732;2023-06-22T05:16:36;11.90;;;9.50;;
8050;SDS011;4068;42.158;24.732;2023-06-22T05:19:02;11.65;;;9.60;;
8050;SDS011;4068;42.158;24.732;2023-06-22T05:21:28;12.02;;;9.23;;
8050;SDS011;4068;42.158;24.732;2023-06-22T05:23:55;14.73;;;9.45;;
8050;SDS011;4068;42.158;24.732;2023-06-22T05:26:24;10.88;;;9.27;;
8050;SDS011;4068;42.158;24.732;2023-06-22T05:28:51;11.60;;;9.15;;
8050;SDS011;4068;42.158;24.732;2023-06-22T05:31:16;9.25;;;8.30;;
8050;SDS011;4068;42.158;24.732;2023-06-22T05:33:43;10.15;;;7.90;;
8050;SDS011;4068;42.158;24.732;2023-06-22T05:36:09;14.23;;;8.48;;
8050;SDS011;4068;42.158;24.732;2023-06-22T05:38:35;10.75;;;8.43;;
8050;SDS011;4068;42.158;24.732;2023-06-22T05:41:01;13.10;;;9.52;;
8050;SDS011;4068;42.158;24.732;2023-06-22T05:43:27;10.32;;;8.68;;
8050;SDS011;4068;42.158;24.732;2023-06-22T05:45:53;10.10;;;8.15;;
8050;SDS011;4068;42.158;24.732;2023-06-22T05:48:18;16.23;;;8.82;;
8050;SDS011;4068;42.158;24.732;2023-06-22T05:50:44;12.40;;;7.78;;
8050;SDS011;4068;42.158;24.732;2023-06-22T05:53:09;12.68;;;8.07;;
8050;SDS011;4068;42.158;24.732;2023-06-22T05:55:34;10.65;;;7.75;;
8050;SDS011;4068;42.158;24.732;2023-06-22T05:58:01;11.18;;;8.90;;
8050;SDS011;4068;42.158;24.732;2023-06-22T06:00:28;8.50;;;7.60;;
8050;SDS011;4068;42.158;24.732;2023-06-22T06:02:53;9.13;;;8.00;;
8050;SDS011;4068;42.158;24.732;2023-06-22T06:05:19;10.90;;;8.15;;
8050;SDS011;4068;42.158;24.732;2023-06-22T06:07:45;9.35;;;7.68;;
8050;SDS011;4068;42.158;24.732;2023-06-22T06:10:11;10.38;;;7.90;;
8050;SDS011;4068;42.158;24.732;2023-06-22T06:12:36;8.63;;;7.55;;
8050;SDS011;4068;42.158;24.732;2023-06-22T06:15:02;12.35;;;7.90;;
8050;SDS011;4068;42.158;24.732;2023-06-22T06:17:29;10.00;;;7.60;;
8050;SDS011;4068;42.158;24.732;2023-06-22T06:19:54;10.15;;;7.47;;
8050;SDS011;4068;42.158;24.732;2023-06-22T06:22:19;9.70;;;8.05;;
8050;SDS011;4068;42.158;24.732;2023-06-22T06:24:46;11.57;;;7.55;;
8050;SDS011;4068;42.158;24.732;2023-06-22T06:27:12;11.73;;;8.02;;
8050;SDS011;4068;42.158;24.732;2023-06-22T06:29:38;9.20;;;7.80;;
8050;SDS011;4068;42.158;24.732;2023-06-22T06:32:04;9.93;;;7.85;;
8050;SDS011;4068;42.158;24.732;2023-06-22T06:34:29;9.27;;;7.72;;
8050;SDS011;4068;42.158;24.732;2023-06-22T06:36:55;9.65;;;8.38;;
8050;SDS011;4068;42.158;24.732;2023-06-22T06:39:20;8.80;;;7.90;;
8050;SDS011;4068;42.158;24.732;2023-06-22T06:41:46;11.10;;;8.07;;
8050;SDS011;4068;42.158;24.732;2023-06-22T06:44:11;10.32;;;7.78;;
8050;SDS011;4068;42.158;24.732;2023-06-22T06:46:37;9.02;;;8.10;;
8050;SDS011;4068;42.158;24.732;2023-06-22T06:49:03;11.00;;;7.90;;
8050;SDS011;4068;42.158;24.732;2023-06-22T06:51:28;8.88;;;7.70;;
8050;SDS011;4068;42.158;24.732;2023-06-22T06:53:54;13.40;;;8.35;;
8050;SDS011;4068;42.158;24.732;2023-06-22T06:56:19;10.48;;;8.35;;
8050;SDS011;4068;42.158;24.732;2023-06-22T06:58:45;11.25;;;7.68;;
8050;SDS011;4068;42.158;24.732;2023-06-22T07:01:11;12.23;;;7.95;;
8050;SDS011;4068;42.158;24.732;2023-06-22T07:03:37;8.10;;;7.30;;
8050;SDS011;4068;42.158;24.732;2023-06-22T07:06:03;10.15;;;7.32;;
8050;SDS011;4068;42.158;24.732;2023-06-22T07:08:29;8.80;;;7.28;;
8050;SDS011;4068;42.158;24.732;2023-06-22T07:10:54;14.60;;;8.45;;
8050;SDS011;4068;42.158;24.732;2023-06-22T07:13:20;9.68;;;7.05;;
8050;SDS011;4068;42.158;24.732;2023-06-22T07:15:45;9.57;;;7.38;;
8050;SDS011;4068;42.158;24.732;2023-06-22T07:18:11;9.02;;;6.75;;
8050;SDS011;4068;42.158;24.732;2023-06-22T07:20:36;8.18;;;7.15;;
8050;SDS011;4068;42.158;24.732;2023-06-22T07:23:02;7.32;;;6.63;;
8050;SDS011;4068;42.158;24.732;2023-06-22T07:25:28;7.93;;;7.03;;
8050;SDS011;4068;42.158;24.732;2023-06-22T07:27:57;10.10;;;7.32;;
8050;SDS011;4068;42.158;24.732;2023-06-22T07:30:23;8.02;;;7.28;;
8050;SDS011;4068;42.158;24.732;2023-06-22T07:32:48;12.20;;;7.50;;
8050;SDS011;4068;42.158;24.732;2023-06-22T07:35:14;12.30;;;8.35;;
8050;SDS011;4068;42.158;24.732;2023-06-22T07:37:41;11.23;;;7.82;;
8050;SDS011;4068;42.158;24.732;2023-06-22T07:40:07;10.35;;;7.18;;
8050;SDS011;4068;42.158;24.732;2023-06-22T07:42:33;7.22;;;6.53;;
8050;SDS011;4068;42.158;24.732;2023-06-22T07:44:58;9.60;;;6.88;;
8050;SDS011;4068;42.158;24.732;2023-06-22T07:47:24;9.18;;;6.80;;
8050;SDS011;4068;42.158;24.732;2023-06-22T07:49:53;8.73;;;6.97;;
8050;SDS011;4068;42.158;24.732;2023-06-22T07:52:20;8.05;;;6.13;;
8050;SDS011;4068;42.158;24.732;2023-06-22T07:54:46;13.10;;;6.72;;
8050;SDS011;4068;42.158;24.732;2023-06-22T07:57:11;7.30;;;6.60;;
8050;SDS011;4068;42.158;24.732;2023-06-22T07:59:37;10.68;;;7.53;;
8050;SDS011;4068;42.158;24.732;2023-06-22T08:02:03;8.32;;;7.20;;
8050;SDS011;4068;42.158;24.732;2023-06-22T08:04:29;7.85;;;6.75;;
8050;SDS011;4068;42.158;24.732;2023-06-22T08:06:56;7.38;;;6.60;;
8050;SDS011;4068;42.158;24.732;2023-06-22T08:09:22;8.48;;;7.28;;
8050;SDS011;4068;42.158;24.732;2023-06-22T08:11:47;8.15;;;7.10;;
8050;SDS011;4068;42.158;24.732;2023-06-22T08:14:14;7.97;;;7.15;;
8050;SDS011;4068;42.158;24.732;2023-06-22T08:16:40;8.25;;;6.70;;
8050;SDS011;4068;42.158;24.732;2023-06-22T08:19:06;6.90;;;6.25;;
8050;SDS011;4068;42.158;24.732;2023-06-22T08:21:32;7.25;;;6.28;;
8050;SDS011;4068;42.158;24.732;2023-06-22T08:23:57;8.32;;;5.82;;
8050;SDS011;4068;42.158;24.732;2023-06-22T08:26:23;9.68;;;6.03;;
8050;SDS011;4068;42.158;24.732;2023-06-22T08:28:48;7.65;;;5.88;;
8050;SDS011;4068;42.158;24.732;2023-06-22T08:31:14;7.60;;;6.53;;
8050;SDS011;4068;42.158;24.732;2023-06-22T08:33:39;7.13;;;6.43;;
8050;SDS011;4068;42.158;24.732;2023-06-22T08:36:05;7.45;;;6.60;;
8050;SDS011;4068;42.158;24.732;2023-06-22T08:38:31;7.15;;;5.95;;
8050;SDS011;4068;42.158;24.732;2023-06-22T08:40:57;8.00;;;6.13;;
8050;SDS011;4068;42.158;24.732;2023-06-22T08:43:22;6.35;;;5.75;;
8050;SDS011;4068;42.158;24.732;2023-06-22T08:45:48;6.78;;;6.15;;
8050;SDS011;4068;42.158;24.732;2023-06-22T08:48:13;7.10;;;6.40;;
8050;SDS011;4068;42.158;24.732;2023-06-22T08:50:39;5.90;;;5.40;;
8050;SDS011;4068;42.158;24.732;2023-06-22T08:53:07;7.68;;;6.45;;
8050;SDS011;4068;42.158;24.732;2023-06-22T08:55:33;9.20;;;6.15;;
8050;SDS011;4068;42.158;24.732;2023-06-22T08:57:59;6.18;;;5.60;;
8050;SDS011;4068;42.158;24.732;2023-06-22T09:00:24;8.30;;;5.68;;
8050;SDS011;4068;42.158;24.732;2023-06-22T09:02:50;9.00;;;5.68;;
8050;SDS011;4068;42.158;24.732;2023-06-22T09:05:15;7.22;;;6.45;;
8050;SDS011;4068;42.158;24.732;2023-06-22T09:07:41;6.85;;;6.10;;
8050;SDS011;4068;42.158;24.732;2023-06-22T09:10:07;8.27;;;5.97;;
8050;SDS011;4068;42.158;24.732;2023-06-22T09:12:33;5.75;;;5.22;;
8050;SDS011;4068;42.158;24.732;2023-06-22T09:14:59;7.10;;;6.05;;
8050;SDS011;4068;42.158;24.732;2023-06-22T09:17:26;7.85;;;7.10;;
8050;SDS011;4068;42.158;24.732;2023-06-22T09:19:51;6.72;;;6.03;;
8050;SDS011;4068;42.158;24.732;2023-06-22T09:22:17;7.00;;;5.90;;
8050;SDS011;4068;42.158;24.732;2023-06-22T09:24:42;7.53;;;6.07;;
8050;SDS011;4068;42.158;24.732;2023-06-22T09:27:08;6.93;;;5.97;;
8050;SDS011;4068;42.158;24.732;2023-06-22T09:29:33;7.40;;;5.55;;
8050;SDS011;4068;42.158;24.732;2023-06-22T09:31:59;6.82;;;5.88;;
8050;SDS011;4068;42.158;24.732;2023-06-22T09:34:25;8.98;;;5.78;;
8050;SDS011;4068;42.158;24.732;2023-06-22T09:36:51;7.15;;;5.78;;
8050;SDS011;4068;42.158;24.732;2023-06-22T09:39:17;8.63;;;6.60;;
8050;SDS011;4068;42.158;24.732;2023-06-22T09:41:43;8.45;;;6.13;;
8050;SDS011;4068;42.158;24.732;2023-06-22T09:44:09;7.65;;;6.60;;
8050;SDS011;4068;42.158;24.732;2023-06-22T09:46:34;9.52;;;6.05;;
8050;SDS011;4068;42.158;24.732;2023-06-22T09:49:00;6.10;;;5.50;;
8050;SDS011;4068;42.158;24.732;2023-06-22T09:51:25;5.65;;;5.15;;
8050;SDS011;4068;42.158;24.732;2023-06-22T09:53:51;8.57;;;5.25;;
8050;SDS011;4068;42.158;24.732;2023-06-22T09:56:18;5.80;;;5.20;;
8050;SDS011;4068;42.158;24.732;2023-06-22T09:58:44;5.93;;;5.30;;
8050;SDS011;4068;42.158;24.732;2023-06-22T10:01:11;8.07;;;5.45;;
8050;SDS011;4068;42.158;24.732;2023-06-22T10:03:36;9.82;;;5.68;;
8050;SDS011;4068;42.158;24.732;2023-06-22T10:06:02;6.45;;;5.82;;
8050;SDS011;4068;42.158;24.732;2023-06-22T10:08:28;10.25;;;6.05;;
8050;SDS011;4068;42.158;24.732;2023-06-22T10:10:54;6.40;;;5.78;;
8050;SDS011;4068;42.158;24.732;2023-06-22T10:13:19;6.97;;;5.22;;
8050;SDS011;4068;42.158;24.732;2023-06-22T10:15:45;9.23;;;6.05;;
8050;SDS011;4068;42.158;24.732;2023-06-22T10:18:15;5.95;;;5.45;;
8050;SDS011;4068;42.158;24.732;2023-06-22T10:20:41;6.22;;;5.68;;
8050;SDS011;4068;42.158;24.732;2023-06-22T10:23:06;10.77;;;5.30;;
8050;SDS011;4068;42.158;24.732;2023-06-22T10:25:32;6.13;;;5.53;;
8050;SDS011;4068;42.158;24.732;2023-06-22T10:27:57;6.65;;;5.78;;
8050;SDS011;4068;42.158;24.732;2023-06-22T10:30:23;6.05;;;5.55;;
8050;SDS011;4068;42.158;24.732;2023-06-22T10:32:48;8.70;;;6.03;;
8050;SDS011;4068;42.158;24.732;2023-06-22T10:35:14;6.45;;;5.85;;
8050;SDS011;4068;42.158;24.732;2023-06-22T10:37:41;6.93;;;6.22;;
8050;SDS011;4068;42.158;24.732;2023-06-22T10:40:14;10.38;;;6.30;;
8050;SDS011;4068;42.158;24.732;2023-06-22T10:42:41;6.43;;;5.82;;
8050;SDS011;4068;42.158;24.732;2023-06-22T10:45:07;7.60;;;6.43;;
8050;SDS011;4068;42.158;24.732;2023-06-22T10:47:33;7.03;;;6.30;;
8050;SDS011;4068;42.158;24.732;2023-06-22T10:49:59;8.75;;;6.03;;
8050;SDS011;4068;42.158;24.732;2023-06-22T10:52:24;8.00;;;6.00;;
8050;SDS011;4068;42.158;24.732;2023-06-22T10:54:50;8.05;;;5.45;;
8050;SDS011;4068;42.158;24.732;2023-06-22T10:57:15;6.63;;;6.03;;
8050;SDS011;4068;42.158;24.732;2023-06-22T10:59:41;5.97;;;5.47;;
8050;SDS011;4068;42.158;24.732;2023-06-22T11:02:06;6.90;;;6.20;;
8050;SDS011;4068;42.158;24.732;2023-06-22T11:04:31;6.53;;;5.93;;
8050;SDS011;4068;42.158;24.732;2023-06-22T11:06:57;6.68;;;6.00;;
8050;SDS011;4068;42.158;24.732;2023-06-22T11:09:22;8.13;;;6.13;;
8050;SDS011;4068;42.158;24.732;2023-06-22T11:11:48;6.22;;;5.63;;
8050;SDS011;4068;42.158;24.732;2023-06-22T11:14:15;8.20;;;7.30;;
8050;SDS011;4068;42.158;24.732;2023-06-22T11:16:40;6.65;;;5.88;;
8050;SDS011;4068;42.158;24.732;2023-06-22T11:19:06;6.75;;;5.65;;
8050;SDS011;4068;42.158;24.732;2023-06-22T11:21:31;6.40;;;5.72;;
8050;SDS011;4068;42.158;24.732;2023-06-22T11:23:57;6.10;;;5.55;;
8050;SDS011;4068;42.158;24.732;2023-06-22T11:26:23;6.00;;;5.30;;
8050;SDS011;4068;42.158;24.732;2023-06-22T11:28:50;8.60;;;6.05;;
8050;SDS011;4068;42.158;24.732;2023-06-22T11:31:15;6.82;;;6.15;;
8050;SDS011;4068;42.158;24.732;2023-06-22T11:33:40;6.32;;;5.72;;
8050;SDS011;4068;42.158;24.732;2023-06-22T11:36:06;7.63;;;5.70;;
8050;SDS011;4068;42.158;24.732;2023-06-22T11:38:31;6.10;;;5.50;;
8050;SDS011;4068;42.158;24.732;2023-06-22T11:40:58;6.90;;;5.60;;
8050;SDS011;4068;42.158;24.732;2023-06-22T11:43:25;8.70;;;6.40;;
8050;SDS011;4068;42.158;24.732;2023-06-22T11:45:50;6.70;;;5.93;;
8050;SDS011;4068;42.158;24.732;2023-06-22T11:48:16;8.55;;;6.30;;
8050;SDS011;4068;42.158;24.732;2023-06-22T11:50:41;7.05;;;5.55;;
8050;SDS011;4068;42.158;24.732;2023-06-22T11:53:07;6.50;;;5.90;;
8050;SDS011;4068;42.158;24.732;2023-06-22T11:55:32;7.15;;;6.22;;
8050;SDS011;4068;42.158;24.732;2023-06-22T11:57:58;6.43;;;5.82;;
8050;SDS011;4068;42.158;24.732;2023-06-22T12:00:25;7.57;;;6.22;;
8050;SDS011;4068;42.158;24.732;2023-06-22T12:02:51;7.18;;;5.90;;
8050;SDS011;4068;42.158;24.732;2023-06-22T12:05:20;6.57;;;5.88;;
8050;SDS011;4068;42.158;24.732;2023-06-22T12:07:46;9.90;;;6.22;;
8050;SDS011;4068;42.158;24.732;2023-06-22T12:10:12;7.68;;;6.13;;
8050;SDS011;4068;42.158;24.732;2023-06-22T12:12:37;6.78;;;5.90;;
8050;SDS011;4068;42.158;24.732;2023-06-22T12:15:03;6.80;;;6.20;;
8050;SDS011;4068;42.158;24.732;2023-06-22T12:17:29;6.57;;;5.97;;
8050;SDS011;4068;42.158;24.732;2023-06-22T12:19:55;12.50;;;6.68;;
8050;SDS011;4068;42.158;24.732;2023-06-22T12:22:21;6.63;;;5.85;;
8050;SDS011;4068;42.158;24.732;2023-06-22T12:24:46;6.72;;;6.10;;
8050;SDS011;4068;42.158;24.732;2023-06-22T12:27:12;9.43;;;6.55;;
8050;SDS011;4068;42.158;24.732;2023-06-22T12:29:37;7.57;;;6.47;;
8050;SDS011;4068;42.158;24.732;2023-06-22T12:32:03;6.80;;;5.95;;
8050;SDS011;4068;42.158;24.732;2023-06-22T12:34:29;10.95;;;6.70;;
8050;SDS011;4068;42.158;24.732;2023-06-22T12:36:54;8.35;;;5.93;;
8050;SDS011;4068;42.158;24.732;2023-06-22T12:39:20;7.05;;;6.32;;
8050;SDS011;4068;42.158;24.732;2023-06-22T12:41:45;5.85;;;5.35;;
8050;SDS011;4068;42.158;24.732;2023-06-22T12:44:11;6.32;;;5.72;;
8050;SDS011;4068;42.158;24.732;2023-06-22T12:46:36;8.70;;;6.25;;
8050;SDS011;4068;42.158;24.732;2023-06-22T12:49:03;8.15;;;5.93;;
8050;SDS011;4068;42.158;24.732;2023-06-22T12:51:30;6.60;;;5.97;;
8050;SDS011;4068;42.158;24.732;2023-06-22T12:53:55;6.65;;;5.95;;
8050;SDS011;4068;42.158;24.732;2023-06-22T12:56:21;7.68;;;5.85;;
8050;SDS011;4068;42.158;24.732;2023-06-22T12:58:47;7.43;;;6.18;;
8050;SDS011;4068;42.158;24.732;2023-06-22T13:01:12;7.40;;;5.88;;
8050;SDS011;4068;42.158;24.732;2023-06-22T13:03:37;8.50;;;6.18;;
8050;SDS011;4068;42.158;24.732;2023-06-22T13:06:03;6.45;;;5.85;;
8050;SDS011;4068;42.158;24.732;2023-06-22T13:08:29;6.72;;;6.03;;
8050;SDS011;4068;42.158;24.732;2023-06-22T13:10:55;7.13;;;6.30;;
8050;SDS011;4068;42.158;24.732;2023-06-22T13:13:23;7.20;;;6.50;;
8050;SDS011;4068;42.158;24.732;2023-06-22T13:15:55;9.85;;;6.85;;
8050;SDS011;4068;42.158;24.732;2023-06-22T13:18:20;6.53;;;5.93;;
8050;SDS011;4068;42.158;24.732;2023-06-22T13:20:46;7.40;;;6.70;;
8050;SDS011;4068;42.158;24.732;2023-06-22T13:23:11;12.90;;;6.38;;
8050;SDS011;4068;42.158;24.732;2023-06-22T13:25:37;9.88;;;6.75;;
8050;SDS011;4068;42.158;24.732;2023-06-22T13:28:02;7.50;;;6.75;;
8050;SDS011;4068;42.158;24.732;2023-06-22T13:30:28;8.98;;;6.55;;
8050;SDS011;4068;42.158;24.732;2023-06-22T13:32:54;11.20;;;7.43;;
8050;SDS011;4068;42.158;24.732;2023-06-22T13:35:19;7.75;;;6.93;;
8050;SDS011;4068;42.158;24.732;2023-06-22T13:37:45;7.40;;;6.68;;
8050;SDS011;4068;42.158;24.732;2023-06-22T13:40:10;12.40;;;6.65;;
8050;SDS011;4068;42.158;24.732;2023-06-22T13:42:36;14.23;;;6.78;;
8050;SDS011;4068;42.158;24.732;2023-06-22T13:45:01;7.75;;;6.47;;
8050;SDS011;4068;42.158;24.732;2023-06-22T13:47:28;8.52;;;6.40;;
8050;SDS011;4068;42.158;24.732;2023-06-22T13:49:54;12.02;;;8.05;;
8050;SDS011;4068;42.158;24.732;2023-06-22T13:52:19;10.23;;;7.60;;
8050;SDS011;4068;42.158;24.732;2023-06-22T13:54:45;7.45;;;6.70;;
8050;SDS011;4068;42.158;24.732;2023-06-22T13:57:10;8.27;;;7.28;;
8050;SDS011;4068;42.158;24.732;2023-06-22T13:59:36;12.20;;;7.10;;
8050;SDS011;4068;42.158;24.732;2023-06-22T14:02:01;12.27;;;8.02;;
8050;SDS011;4068;42.158;24.732;2023-06-22T14:04:27;13.20;;;7.65;;
8050;SDS011;4068;42.158;24.732;2023-06-22T14:06:53;11.85;;;7.70;;
8050;SDS011;4068;42.158;24.732;2023-06-22T14:09:20;18.35;;;7.90;;
8050;SDS011;4068;42.158;24.732;2023-06-22T14:11:46;19.45;;;8.02;;
8050;SDS011;4068;42.158;24.732;2023-06-22T14:14:11;11.30;;;7.28;;
8050;SDS011;4068;42.158;24.732;2023-06-22T14:16:37;9.75;;;7.15;;
8050;SDS011;4068;42.158;24.732;2023-06-22T14:19:02;14.50;;;8.52;;
8050;SDS011;4068;42.158;24.732;2023-06-22T14:21:27;8.07;;;7.28;;
8050;SDS011;4068;42.158;24.732;2023-06-22T14:23:53;12.27;;;7.18;;
8050;SDS011;4068;42.158;24.732;2023-06-22T14:26:19;8.75;;;7.13;;
8050;SDS011;4068;42.158;24.732;2023-06-22T14:28:47;10.85;;;7.00;;
8050;SDS011;4068;42.158;24.732;2023-06-22T14:31:15;12.77;;;7.07;;
8050;SDS011;4068;42.158;24.732;2023-06-22T14:33:47;15.80;;;7.05;;
8050;SDS011;4068;42.158;24.732;2023-06-22T14:36:14;13.73;;;7.25;;
8050;SDS011;4068;42.158;24.732;2023-06-22T14:38:40;11.75;;;7.38;;
8050;SDS011;4068;42.158;24.732;2023-06-22T14:41:06;11.23;;;7.93;;
8050;SDS011;4068;42.158;24.732;2023-06-22T14:43:31;16.70;;;8.73;;
8050;SDS011;4068;42.158;24.732;2023-06-22T14:45:57;18.52;;;7.72;;
8050;SDS011;4068;42.158;24.732;2023-06-22T14:48:22;14.95;;;8.65;;